Time;durP1;ratioP1;P1;durP2;ratioP2;P2;SDS_P1;SDS_P2;PMS_P1;PMS_P2;Temp;Humidity;BMP_temperature;BMP_pressure;BME280_temperature;BME280_humidity;BME280_pressure;Samples;Min_cycle;Max_cycle;Signal;HPM_P1;HPM_P2
2021/07/04 00:00:01;;;;;;;5.97;5.47;;;19.20;74.60;;;;;;5045417;28;20461;-80
2021/07/04 00:02:28;;;;;;;5.93;5.23;;;19.10;75.90;;;;;;5039249;28;21024;-79
2021/07/04 00:04:55;;;;;;;5.60;5.10;;;19.10;75.90;;;;;;5038162;28;20443;-79
2021/07/04 00:07:23;;;;;;;8.70;5.57;;;19.00;76.70;;;;;;5039297;28;20493;-79
2021/07/04 00:09:50;;;;;;;6.67;5.80;;;19.00;76.60;;;;;;5052847;28;20953;-77
2021/07/04 00:12:17;;;;;;;6.20;5.70;;;19.00;76.30;;;;;;5057131;28;20465;-76
2021/07/04 00:14:45;;;;;;;6.23;5.63;;;18.90;77.30;;;;;;5051950;28;20440;-75
2021/07/04 00:17:12;;;;;;;6.30;5.70;;;18.90;77.80;;;;;;5055063;28;20450;-77
2021/07/04 00:19:42;;;;;;;5.80;5.30;;;18.80;78.30;;;;;;5037049;28;20545;-78
2021/07/04 00:22:09;;;;;;;5.57;5.17;;;18.80;78.70;;;;;;5036910;28;20546;-78
2021/07/04 00:24:37;;;;;;;6.10;5.30;;;18.80;79.20;;;;;;5036975;28;20532;-78
2021/07/04 00:27:04;;;;;;;6.03;5.40;;;18.70;79.30;;;;;;5037058;28;20440;-78
2021/07/04 00:29:31;;;;;;;9.73;6.07;;;18.70;79.40;;;;;;5042309;28;20503;-78
2021/07/04 00:31:58;;;;;;;7.23;6.13;;;18.70;79.90;;;;;;5042359;28;20941;-78
2021/07/04 00:34:25;;;;;;;6.60;6.00;;;18.60;80.80;;;;;;5046437;28;20435;-77
2021/07/04 00:36:52;;;;;;;6.10;5.50;;;18.60;81.00;;;;;;5047786;28;20530;-77
2021/07/04 00:39:19;;;;;;;5.30;4.90;;;18.60;81.60;;;;;;5046629;28;20832;-77
2021/07/04 00:41:48;;;;;;;7.33;5.40;;;18.50;81.70;;;;;;5045460;28;20903;-79
2021/07/04 00:44:15;;;;;;;9.83;5.77;;;18.50;81.50;;;;;;5044850;28;20904;-79
2021/07/04 00:46:41;;;;;;;6.50;5.90;;;18.50;81.90;;;;;;5040430;28;20467;-80
2021/07/04 00:49:08;;;;;;;5.90;5.40;;;18.40;82.10;;;;;;5037323;28;20496;-79
2021/07/04 00:51:35;;;;;;;6.23;5.63;;;18.40;82.60;;;;;;5037029;28;20474;-79
2021/07/04 00:54:03;;;;;;;6.30;5.23;;;18.40;82.10;;;;;;5048620;28;20467;-77
2021/07/04 00:56:30;;;;;;;6.40;5.80;;;18.40;82.10;;;;;;5050285;28;20461;-76
2021/07/04 00:58:58;;;;;;;6.13;5.50;;;18.40;82.60;;;;;;5037010;28;20517;-79
2021/07/04 01:01:25;;;;;;;6.10;5.50;;;18.40;82.00;;;;;;5039051;28;20892;-80
2021/07/04 01:03:52;;;;;;;6.60;6.00;;;18.40;82.30;;;;;;5039182;28;20500;-79
2021/07/04 01:06:19;;;;;;;7.03;6.40;;;18.40;82.40;;;;;;5036627;28;20489;-79
2021/07/04 01:08:46;;;;;;;6.80;5.70;;;18.40;83.10;;;;;;5044352;28;20499;-80
2021/07/04 01:11:13;;;;;;;6.37;5.77;;;18.40;82.90;;;;;;5057265;28;20480;-75
2021/07/04 01:13:40;;;;;;;6.17;5.63;;;18.40;83.30;;;;;;5060051;28;20476;-76
2021/07/04 01:16:08;;;;;;;5.87;5.27;;;18.40;83.90;;;;;;5060464;28;20441;-76
2021/07/04 01:18:36;;;;;;;5.70;5.20;;;18.40;82.80;;;;;;5060376;28;20426;-77
2021/07/04 01:21:05;;;;;;;6.10;5.50;;;18.40;83.10;;;;;;5052386;28;20452;-79
2021/07/04 01:23:33;;;;;;;6.87;6.20;;;18.40;83.90;;;;;;5043038;28;20464;-79
2021/07/04 01:26:01;;;;;;;6.80;6.03;;;18.40;83.90;;;;;;5041147;28;20422;-79
2021/07/04 01:28:28;;;;;;;12.83;5.93;;;18.40;84.00;;;;;;5041283;28;20496;-78
2021/07/04 01:30:59;;;;;;;7.00;6.40;;;18.40;83.90;;;;;;5040617;28;20460;-79
2021/07/04 01:33:27;;;;;;;6.63;6.03;;;18.30;83.90;;;;;;5048628;28;20432;-79
2021/07/04 01:35:54;;;;;;;8.43;6.33;;;18.20;85.50;;;;;;5051227;28;20426;-78
2021/07/04 01:38:21;;;;;;;6.80;6.10;;;18.20;85.90;;;;;;5050309;28;20465;-79
2021/07/04 01:40:50;;;;;;;6.67;6.07;;;18.20;85.60;;;;;;5040636;28;20428;-79
2021/07/04 01:43:17;;;;;;;6.30;5.70;;;18.30;85.80;;;;;;5051448;28;20435;-78
2021/07/04 01:45:44;;;;;;;7.40;6.63;;;18.30;85.50;;;;;;5052803;28;20427;-78
2021/07/04 01:48:13;;;;;;;8.23;5.20;;;18.30;84.90;;;;;;5045919;28;20495;-80
2021/07/04 01:50:45;;;;;;;6.30;5.80;;;18.40;84.50;;;;;;5039412;28;20446;-78
2021/07/04 01:53:12;;;;;;;5.90;5.40;;;18.30;84.60;;;;;;5039946;28;20564;-76
2021/07/04 01:55:38;;;;;;;7.97;6.27;;;18.30;84.20;;;;;;5042281;28;20987;-78
2021/07/04 01:58:07;;;;;;;5.67;5.17;;;18.30;84.50;;;;;;5040485;28;20456;-79
2021/07/04 02:00:36;;;;;;;6.50;5.90;;;18.30;83.90;;;;;;5041428;28;20515;-78
2021/07/04 02:03:04;;;;;;;6.93;6.33;;;18.40;83.90;;;;;;5055914;28;20462;-76
2021/07/04 02:05:32;;;;;;;6.43;5.87;;;18.40;83.90;;;;;;5059385;28;20449;-77
2021/07/04 02:07:59;;;;;;;7.07;6.10;;;18.40;83.40;;;;;;5047357;28;20669;-79
2021/07/04 02:10:28;;;;;;;5.93;5.43;;;18.40;83.00;;;;;;5044357;28;20467;-79
2021/07/04 02:12:55;;;;;;;6.20;5.50;;;18.40;83.10;;;;;;5037637;28;20488;-80
2021/07/04 02:15:26;;;;;;;6.13;5.63;;;18.40;82.80;;;;;;5037515;28;20469;-81
2021/07/04 02:17:53;;;;;;;6.13;5.53;;;18.50;82.80;;;;;;5037869;28;20855;-79
2021/07/04 02:20:40;;;;;;;6.93;6.27;;;18.40;82.70;;;;;;5045445;28;20427;-81
2021/07/04 02:23:09;;;;;;;7.13;6.10;;;18.30;83.90;;;;;;5052640;28;20838;-79
2021/07/04 02:25:36;;;;;;;8.70;6.10;;;18.30;83.90;;;;;;5037906;28;20560;-79
2021/07/04 02:28:04;;;;;;;6.33;5.73;;;18.30;83.90;;;;;;5038190;28;20491;-80
2021/07/04 02:30:33;;;;;;;5.30;4.90;;;18.30;83.90;;;;;;5058886;28;20440;-81
2021/07/04 02:33:02;;;;;;;6.43;5.90;;;18.20;83.80;;;;;;5046483;28;20496;-82
2021/07/04 02:35:31;;;;;;;7.23;5.90;;;18.20;84.90;;;;;;5059120;28;20463;-81
2021/07/04 02:37:58;;;;;;;5.93;5.33;;;18.20;84.20;;;;;;5057479;28;20454;-82
2021/07/04 02:40:25;;;;;;;6.50;5.90;;;18.20;85.10;;;;;;5046563;28;20459;-79
2021/07/04 02:42:52;;;;;;;6.67;5.90;;;18.20;85.00;;;;;;5036992;28;20451;-79
2021/07/04 02:45:19;;;;;;;6.60;6.00;;;18.20;84.90;;;;;;5034924;28;20521;-79
2021/07/04 02:47:47;;;;;;;5.70;5.20;;;18.30;85.20;;;;;;5034980;28;20419;-79
2021/07/04 02:50:20;;;;;;;8.83;6.63;;;18.20;85.90;;;;;;5034721;28;20492;-80
2021/07/04 02:52:47;;;;;;;8.30;6.17;;;18.20;85.00;;;;;;5039880;28;20880;-78
2021/07/04 02:55:14;;;;;;;5.70;5.20;;;18.20;84.90;;;;;;5036457;28;20465;-79
2021/07/04 02:57:41;;;;;;;6.93;6.20;;;18.30;85.10;;;;;;5036643;28;20484;-80
2021/07/04 03:00:10;;;;;;;7.43;6.67;;;18.20;85.40;;;;;;5038149;28;20424;-78
2021/07/04 03:02:37;;;;;;;8.00;6.03;;;18.20;85.70;;;;;;5036548;28;20564;-79
2021/07/04 03:05:07;;;;;;;6.77;6.17;;;18.20;85.60;;;;;;5036156;28;20461;-79
2021/07/04 03:07:34;;;;;;;6.83;6.23;;;18.20;85.00;;;;;;5036857;28;20477;-79
2021/07/04 03:10:01;;;;;;;7.00;6.30;;;18.30;85.10;;;;;;5036541;28;20471;-79
2021/07/04 03:12:28;;;;;;;6.90;6.30;;;18.30;83.90;;;;;;5058846;22;21026;-78
2021/07/04 03:14:55;;;;;;;7.27;6.57;;;18.30;84.50;;;;;;5035797;28;20960;-78
2021/07/04 03:17:22;;;;;;;6.70;6.10;;;18.40;83.90;;;;;;5033381;28;20831;-78
2021/07/04 03:19:49;;;;;;;7.10;6.40;;;18.40;83.90;;;;;;5033661;28;20539;-78
2021/07/04 03:22:17;;;;;;;7.30;6.20;;;18.40;83.90;;;;;;5033137;28;20488;-78
2021/07/04 03:24:44;;;;;;;6.93;6.33;;;18.40;83.90;;;;;;5033190;28;20464;-78
2021/07/04 03:27:11;;;;;;;8.37;6.73;;;18.40;83.90;;;;;;5033642;28;20556;-78
2021/07/04 03:29:38;;;;;;;9.80;6.50;;;18.40;83.90;;;;;;5033019;28;20464;-78
2021/07/04 03:32:06;;;;;;;6.63;5.93;;;18.50;84.70;;;;;;5033252;28;20984;-78
2021/07/04 03:34:33;;;;;;;7.17;6.57;;;18.60;84.20;;;;;;5033478;28;20487;-77
2021/07/04 03:37:00;;;;;;;5.77;5.30;;;18.60;84.10;;;;;;5038365;28;20547;-78
2021/07/04 03:39:28;;;;;;;6.90;6.20;;;18.60;84.10;;;;;;5033357;28;20488;-78
2021/07/04 03:41:55;;;;;;;7.43;6.73;;;18.70;83.20;;;;;;5034549;28;20484;-78
2021/07/04 03:44:22;;;;;;;6.90;6.23;;;18.70;82.60;;;;;;5034996;28;20460;-76
2021/07/04 03:46:49;;;;;;;6.70;5.50;;;18.80;82.40;;;;;;5035393;28;20457;-77
2021/07/04 03:49:16;;;;;;;7.40;6.13;;;18.80;82.90;;;;;;5033404;28;20467;-77
2021/07/04 03:51:43;;;;;;;7.13;6.43;;;18.80;83.30;;;;;;5032877;28;20545;-78
2021/07/04 03:54:10;;;;;;;8.70;6.17;;;18.80;83.20;;;;;;5032950;28;20547;-78
2021/07/04 03:56:38;;;;;;;7.83;6.97;;;18.90;82.70;;;;;;5034390;28;20809;-77
2021/07/04 03:59:05;;;;;;;6.40;5.87;;;18.90;82.30;;;;;;5041840;28;20446;-78
2021/07/04 04:01:32;;;;;;;7.13;6.10;;;18.90;81.90;;;;;;5044463;28;20517;-78
2021/07/04 04:03:59;;;;;;;9.17;6.50;;;19.00;81.70;;;;;;5039244;28;21174;-78
2021/07/04 04:06:26;;;;;;;6.33;5.83;;;19.00;81.20;;;;;;5053242;28;20464;-78
2021/07/04 04:08:52;;;;;;;7.00;6.40;;;19.10;81.30;;;;;;5044928;28;20454;-78
2021/07/04 04:11:19;;;;;;;6.30;5.77;;;19.10;81.20;;;;;;5033495;28;20555;-78
2021/07/04 04:13:48;;;;;;;6.63;6.00;;;19.10;81.00;;;;;;5033401;28;20415;-78
2021/07/04 04:16:14;;;;;;;8.53;5.73;;;19.10;81.20;;;;;;5033067;28;20436;-77
2021/07/04 04:18:41;;;;;;;6.87;6.20;;;19.20;81.10;;;;;;5033194;28;20964;-78
2021/07/04 04:21:09;;;;;;;6.43;5.83;;;19.20;80.90;;;;;;5032933;28;20480;-77
2021/07/04 04:23:36;;;;;;;6.77;6.10;;;19.20;80.70;;;;;;5032921;28;20477;-78
2021/07/04 04:26:04;;;;;;;6.50;5.97;;;19.20;80.40;;;;;;5035196;28;20438;-78
2021/07/04 04:28:31;;;;;;;8.03;6.27;;;19.20;80.90;;;;;;5043533;28;20468;-79
2021/07/04 04:31:00;;;;;;;6.10;5.60;;;19.20;81.20;;;;;;5046739;28;20546;-78
2021/07/04 04:33:27;;;;;;;8.00;6.43;;;19.30;80.50;;;;;;5042941;28;20726;-79
2021/07/04 04:35:54;;;;;;;7.77;6.50;;;19.40;80.10;;;;;;5041879;28;20467;-78
2021/07/04 04:38:21;;;;;;;7.47;6.33;;;19.50;79.10;;;;;;5043263;28;20421;-78
2021/07/04 04:40:47;;;;;;;6.10;5.60;;;19.60;78.70;;;;;;5043933;28;20465;-78
2021/07/04 04:43:14;;;;;;;6.20;5.70;;;19.70;78.10;;;;;;5041544;28;20502;-78
2021/07/04 04:45:42;;;;;;;6.23;5.43;;;19.70;77.40;;;;;;5033858;28;20448;-78
2021/07/04 04:48:10;;;;;;;7.00;6.30;;;19.80;76.60;;;;;;5036672;28;20817;-78
2021/07/04 04:50:37;;;;;;;6.83;6.23;;;19.90;76.60;;;;;;5036953;28;20496;-78
2021/07/04 04:53:04;;;;;;;8.20;5.40;;;19.90;76.60;;;;;;5036159;28;20973;-79
2021/07/04 04:55:31;;;;;;;6.83;6.13;;;19.90;76.60;;;;;;5036021;28;20467;-77
2021/07/04 04:57:58;;;;;;;7.10;6.50;;;19.90;76.60;;;;;;5036041;28;20514;-77
2021/07/04 05:00:25;;;;;;;6.57;5.97;;;19.90;77.20;;;;;;5038717;28;20908;-78
2021/07/04 05:02:51;;;;;;;6.70;6.10;;;19.90;77.30;;;;;;5035876;28;20544;-77
2021/07/04 05:05:20;;;;;;;6.97;6.30;;;20.00;77.40;;;;;;5035711;28;20464;-77
2021/07/04 05:07:48;;;;;;;6.27;5.67;;;19.90;77.20;;;;;;5035874;28;20482;-77
2021/07/04 05:10:15;;;;;;;5.87;5.27;;;20.00;78.00;;;;;;5035536;28;20887;-77
2021/07/04 05:12:42;;;;;;;7.07;6.43;;;20.10;76.80;;;;;;5035463;28;20509;-77
2021/07/04 05:15:09;;;;;;;8.83;6.13;;;20.30;76.60;;;;;;5035505;28;20445;-77
2021/07/04 05:17:36;;;;;;;6.27;5.77;;;20.40;74.50;;;;;;5035534;28;20516;-77
2021/07/04 05:20:06;;;;;;;6.40;5.80;;;20.50;74.10;;;;;;5036162;28;20511;-77
2021/07/04 05:22:36;;;;;;;5.90;5.40;;;20.60;73.60;;;;;;5036296;28;20481;-77
2021/07/04 05:25:03;;;;;;;6.13;5.63;;;20.60;72.80;;;;;;5036652;28;20429;-78
2021/07/04 05:27:30;;;;;;;7.10;6.40;;;20.60;73.20;;;;;;5038409;28;20501;-78
2021/07/04 05:29:58;;;;;;;5.87;5.27;;;20.70;72.90;;;;;;5035222;28;20500;-78
2021/07/04 05:32:25;;;;;;;6.07;5.50;;;20.70;72.20;;;;;;5035467;28;20816;-78
2021/07/04 05:34:52;;;;;;;5.80;5.40;;;20.80;72.10;;;;;;5035584;28;20428;-77
2021/07/04 05:37:19;;;;;;;5.97;5.47;;;20.90;71.00;;;;;;5036266;28;20522;-78
2021/07/04 05:39:47;;;;;;;6.97;6.30;;;20.90;71.00;;;;;;5035831;28;20454;-78
2021/07/04 05:42:14;;;;;;;6.93;5.57;;;21.10;70.10;;;;;;5035099;28;20479;-78
2021/07/04 05:44:41;;;;;;;6.73;6.20;;;21.30;69.00;;;;;;5035128;28;20566;-78
2021/07/04 05:47:09;;;;;;;7.00;6.00;;;21.40;68.10;;;;;;5035495;28;20462;-77
2021/07/04 05:49:37;;;;;;;6.37;5.77;;;21.60;67.50;;;;;;5037165;28;20482;-78
2021/07/04 05:52:05;;;;;;;6.43;5.87;;;21.70;66.20;;;;;;5035965;28;20494;-78
2021/07/04 05:54:32;;;;;;;6.20;5.70;;;21.80;64.90;;;;;;5035676;28;20942;-78
2021/07/04 05:57:05;;;;;;;5.60;5.20;;;22.00;63.80;;;;;;5035200;28;20532;-78
2021/07/04 05:59:32;;;;;;;5.57;5.03;;;22.30;62.50;;;;;;5035915;28;20485;-78
2021/07/04 06:01:59;;;;;;;6.77;6.17;;;22.40;61.40;;;;;;5037454;28;20483;-78
2021/07/04 06:04:26;;;;;;;6.17;5.67;;;22.50;60.90;;;;;;5040972;28;20435;-78
2021/07/04 06:06:53;;;;;;;5.57;5.17;;;22.80;60.50;;;;;;5038340;28;20487;-77
2021/07/04 06:09:20;;;;;;;6.00;5.40;;;23.10;59.20;;;;;;5044786;28;20488;-78
2021/07/04 06:11:49;;;;;;;5.80;5.30;;;23.50;56.80;;;;;;5044511;28;20470;-78
2021/07/04 06:14:17;;;;;;;5.90;5.30;;;23.80;54.90;;;;;;5038978;28;20545;-79
2021/07/04 06:16:44;;;;;;;6.23;5.70;;;23.60;55.00;;;;;;5043782;28;20463;-79
2021/07/04 06:19:11;;;;;;;7.43;4.80;;;23.20;56.20;;;;;;5043415;28;20872;-77
2021/07/04 06:21:38;;;;;;;5.83;5.07;;;23.20;56.30;;;;;;5042457;28;20513;-77
2021/07/04 06:24:06;;;;;;;5.40;5.00;;;23.30;56.00;;;;;;5036628;28;20440;-77
2021/07/04 06:26:33;;;;;;;6.20;5.67;;;23.40;56.10;;;;;;5037441;28;20428;-78
2021/07/04 06:29:00;;;;;;;5.63;4.93;;;23.10;56.80;;;;;;5039616;28;20439;-78
2021/07/04 06:31:29;;;;;;;6.20;5.60;;;23.00;58.50;;;;;;5052756;28;20483;-78
2021/07/04 06:33:57;;;;;;;5.67;5.13;;;23.00;58.40;;;;;;5056914;28;20431;-77
2021/07/04 06:36:24;;;;;;;6.20;5.03;;;23.00;58.30;;;;;;5038837;28;20501;-78
2021/07/04 06:38:51;;;;;;;7.17;6.47;;;23.10;58.00;;;;;;5036956;28;20459;-78
2021/07/04 06:41:18;;;;;;;6.43;5.93;;;23.00;58.70;;;;;;5036993;28;20540;-78
2021/07/04 06:43:45;;;;;;;9.10;5.47;;;23.00;58.60;;;;;;5036290;28;20496;-78
2021/07/04 06:46:12;;;;;;;7.00;5.47;;;23.30;57.50;;;;;;5036370;28;20423;-78
2021/07/04 06:48:40;;;;;;;7.93;5.47;;;23.60;56.50;;;;;;5037826;28;20435;-78
2021/07/04 06:51:08;;;;;;;6.33;5.73;;;23.60;56.60;;;;;;5039071;28;20521;-78
2021/07/04 06:53:35;;;;;;;6.23;5.63;;;23.80;55.40;;;;;;5046380;28;20820;-78
2021/07/04 06:56:03;;;;;;;6.73;5.77;;;23.50;56.00;;;;;;5048079;28;20436;-78
2021/07/04 06:58:31;;;;;;;5.90;5.40;;;23.50;56.20;;;;;;5046749;28;20458;-78
2021/07/04 07:00:58;;;;;;;9.50;5.03;;;23.80;54.90;;;;;;5047336;28;20450;-77
2021/07/04 07:03:25;;;;;;;5.80;5.30;;;24.00;54.80;;;;;;5048495;28;20548;-77
2021/07/04 07:05:53;;;;;;;5.23;4.83;;;24.10;53.60;;;;;;5049699;28;20466;-79
2021/07/04 07:08:20;;;;;;;5.30;4.90;;;24.00;53.00;;;;;;5048632;28;20442;-79
2021/07/04 07:10:47;;;;;;;6.57;5.57;;;24.00;53.40;;;;;;5050375;28;20464;-78
2021/07/04 07:13:14;;;;;;;6.40;5.80;;;23.90;53.80;;;;;;5051241;28;20448;-79
2021/07/04 07:15:42;;;;;;;6.10;5.60;;;23.90;54.20;;;;;;5052379;28;20920;-79
2021/07/04 07:18:09;;;;;;;6.23;5.70;;;23.90;54.40;;;;;;5048925;28;20431;-79
2021/07/04 07:20:37;;;;;;;6.07;5.57;;;24.00;53.60;;;;;;5048474;28;20450;-79
2021/07/04 07:23:06;;;;;;;6.63;6.07;;;24.20;52.80;;;;;;5048531;28;20488;-79
2021/07/04 07:25:33;;;;;;;6.73;6.23;;;24.10;53.20;;;;;;5049103;28;20444;-79
2021/07/04 07:28:00;;;;;;;6.67;5.93;;;24.10;53.60;;;;;;5047537;28;20853;-79
2021/07/04 07:30:27;;;;;;;5.90;5.40;;;24.00;54.00;;;;;;5048412;28;20502;-79
2021/07/04 07:32:54;;;;;;;6.50;5.80;;;24.20;54.00;;;;;;5046282;28;20513;-79
2021/07/04 07:35:21;;;;;;;5.90;5.40;;;24.20;53.50;;;;;;5047083;28;20424;-81
2021/07/04 07:37:50;;;;;;;6.20;5.60;;;24.20;53.80;;;;;;5047040;28;20457;-79
2021/07/04 07:40:19;;;;;;;6.00;5.50;;;24.30;52.90;;;;;;5048364;28;20467;-79
2021/07/04 07:42:46;;;;;;;6.80;6.30;;;24.00;54.20;;;;;;5048692;28;20477;-78
2021/07/04 07:45:14;;;;;;;6.60;6.10;;;24.10;53.80;;;;;;5051714;28;20421;-79
2021/07/04 07:47:41;;;;;;;6.37;5.50;;;24.40;53.00;;;;;;5049480;28;20461;-79
2021/07/04 07:50:09;;;;;;;5.87;5.37;;;24.30;52.90;;;;;;5051117;28;20484;-79
2021/07/04 07:52:36;;;;;;;5.50;5.10;;;24.60;53.20;;;;;;5050246;28;20650;-79
2021/07/04 07:55:05;;;;;;;6.67;6.03;;;25.00;51.50;;;;;;5049851;28;20449;-80
2021/07/04 07:57:33;;;;;;;7.87;5.90;;;25.20;50.20;;;;;;5044225;28;20454;-78
2021/07/04 08:00:00;;;;;;;6.53;5.93;;;25.10;50.40;;;;;;5050285;28;20782;-78
2021/07/04 08:02:27;;;;;;;6.50;5.47;;;25.40;49.30;;;;;;5044957;28;20552;-78
2021/07/04 08:04:54;;;;;;;6.00;5.50;;;25.60;48.30;;;;;;5042232;28;20521;-80
2021/07/04 08:07:21;;;;;;;6.40;5.70;;;25.70;47.00;;;;;;5043995;28;20440;-80
2021/07/04 08:09:48;;;;;;;6.47;5.93;;;25.70;46.60;;;;;;5047307;28;20456;-79
2021/07/04 08:12:15;;;;;;;5.93;5.43;;;25.70;46.90;;;;;;5042457;28;20592;-79
2021/07/04 08:14:43;;;;;;;7.17;5.50;;;25.50;46.30;;;;;;5043784;28;20484;-80
2021/07/04 08:17:10;;;;;;;7.10;5.60;;;25.60;45.60;;;;;;5041424;28;20562;-79
2021/07/04 08:19:37;;;;;;;6.50;6.00;;;25.80;44.80;;;;;;5044738;28;20439;-79
2021/07/04 08:22:05;;;;;;;6.30;5.63;;;26.20;44.30;;;;;;5045359;28;20475;-80
2021/07/04 08:24:32;;;;;;;6.90;6.30;;;26.30;44.40;;;;;;5044552;28;20553;-79
2021/07/04 08:26:58;;;;;;;5.93;5.53;;;26.30;44.50;;;;;;5044894;28;20453;-79
2021/07/04 08:29:25;;;;;;;6.60;5.83;;;26.20;44.30;;;;;;5047625;28;20437;-80
2021/07/04 08:31:54;;;;;;;5.90;5.40;;;26.00;44.20;;;;;;5042733;28;20500;-79
2021/07/04 08:34:21;;;;;;;6.17;5.57;;;25.90;44.70;;;;;;5047555;28;20444;-80
2021/07/04 08:36:47;;;;;;;6.43;5.83;;;25.70;45.20;;;;;;5050671;28;20460;-78
2021/07/04 08:39:14;;;;;;;6.07;5.47;;;25.50;45.80;;;;;;5043850;28;20524;-79
2021/07/04 08:41:41;;;;;;;6.97;5.53;;;25.40;46.60;;;;;;5039263;28;20450;-79
2021/07/04 08:44:09;;;;;;;5.97;5.37;;;25.70;45.90;;;;;;5038514;28;20509;-78
2021/07/04 08:46:39;;;;;;;6.80;6.20;;;25.90;45.40;;;;;;5040261;28;20454;-80
2021/07/04 08:49:08;;;;;;;6.47;5.97;;;25.70;44.50;;;;;;5045784;28;20988;-78
2021/07/04 08:51:35;;;;;;;5.87;5.37;;;25.80;44.00;;;;;;5046578;28;20997;-80
2021/07/04 08:54:02;;;;;;;6.53;5.93;;;26.00;44.20;;;;;;5046247;28;20453;-78
2021/07/04 08:56:29;;;;;;;6.47;5.50;;;26.10;44.20;;;;;;5043917;28;20464;-79
2021/07/04 08:58:56;;;;;;;6.43;5.83;;;26.10;44.20;;;;;;5045030;28;20496;-80
2021/07/04 09:01:25;;;;;;;6.57;6.00;;;26.40;43.40;;;;;;5045359;28;20503;-79
2021/07/04 09:03:54;;;;;;;6.90;6.30;;;26.40;43.20;;;;;;5044175;28;20487;-79
2021/07/04 09:09:22;;;;;;;6.60;6.00;;;26.60;43.60;;;;;;5118177;27;20581;-79
2021/07/04 09:11:53;;;;;;;6.93;5.73;;;26.40;43.60;;;;;;5118349;28;20452;-80
2021/07/04 09:14:26;;;;;;;6.03;5.53;;;26.40;42.90;;;;;;5118875;28;20969;-80
2021/07/04 09:16:53;;;;;;;6.10;5.60;;;26.30;43.40;;;;;;5117640;28;20402;-79
2021/07/04 09:19:20;;;;;;;6.70;6.20;;;26.40;43.10;;;;;;5119395;28;20449;-79
2021/07/04 09:21:56;;;;;;;8.20;5.80;;;26.70;42.20;;;;;;5117506;22;20451;-82
2021/07/04 09:24:26;;;;;;;6.73;6.17;;;26.70;41.90;;;;;;5072586;28;20437;-81
2021/07/04 09:27:00;;;;;;;6.33;5.73;;;26.70;41.80;;;;;;5069791;28;20534;-81
2021/07/04 09:29:46;;;;;;;6.50;5.90;;;26.70;42.10;;;;;;5065692;28;20434;-82
2021/07/04 09:32:24;;;;;;;6.53;5.93;;;26.50;42.10;;;;;;5064586;28;20450;-81
2021/07/04 09:35:00;;;;;;;6.63;6.03;;;26.40;42.60;;;;;;5064909;28;20464;-81
2021/07/04 09:37:29;;;;;;;7.50;6.60;;;26.30;42.90;;;;;;5069805;28;20457;-82
2021/07/04 09:40:14;;;;;;;6.37;5.87;;;25.80;44.00;;;;;;5072197;28;20424;-80
2021/07/04 09:43:04;;;;;;;5.87;4.67;;;25.70;44.00;;;;;;5068463;28;20435;-82
2021/07/04 09:45:53;;;;;;;6.27;5.67;;;25.50;45.30;;;;;;5066356;28;20464;-83
2021/07/04 09:48:22;;;;;;;5.60;5.10;;;25.90;44.10;;;;;;5071211;28;20493;-81
2021/07/04 09:50:51;;;;;;;6.00;5.50;;;25.80;44.60;;;;;;5073650;28;20412;-80
2021/07/04 09:53:19;;;;;;;6.30;5.80;;;25.70;44.00;;;;;;5071564;28;20417;-82
2021/07/04 09:55:51;;;;;;;7.13;6.10;;;25.70;44.00;;;;;;5072084;28;20440;-81
2021/07/04 09:58:20;;;;;;;6.53;6.00;;;25.70;44.50;;;;;;5073259;28;20458;-81
2021/07/04 10:00:47;;;;;;;7.23;6.53;;;25.50;46.30;;;;;;5067445;28;20462;-82
2021/07/04 10:03:19;;;;;;;5.67;5.13;;;25.40;47.20;;;;;;5065512;28;20463;-81
2021/07/04 10:06:02;;;;;;;6.17;5.50;;;25.10;48.30;;;;;;5069799;28;20478;-81
2021/07/04 10:08:31;;;;;;;6.70;6.10;;;25.00;50.10;;;;;;5072824;28;20456;-80
2021/07/04 10:11:01;;;;;;;6.17;5.57;;;24.90;51.00;;;;;;5072060;28;20482;-81
2021/07/04 10:13:29;;;;;;;6.00;5.50;;;24.80;53.30;;;;;;5069971;28;20423;-81
2021/07/04 10:15:56;;;;;;;6.03;5.60;;;24.60;53.20;;;;;;5065115;28;20461;-80
2021/07/04 10:18:24;;;;;;;5.30;4.90;;;24.40;54.70;;;;;;5060707;28;20454;-81
2021/07/04 10:20:52;;;;;;;6.30;5.70;;;24.20;54.20;;;;;;5048041;28;20432;-81
2021/07/04 10:23:20;;;;;;;8.23;6.10;;;24.30;52.90;;;;;;5046779;28;20457;-80
2021/07/04 10:25:48;;;;;;;7.63;6.57;;;24.20;52.80;;;;;;5045579;28;20448;-81
2021/07/04 10:28:19;;;;;;;6.03;5.53;;;24.00;52.60;;;;;;5048893;28;20479;-80
2021/07/04 10:30:49;;;;;;;5.87;5.37;;;23.80;56.60;;;;;;5053548;28;20490;-80
2021/07/04 10:33:20;;;;;;;6.30;5.10;;;23.50;57.40;;;;;;5054357;28;20424;-80
2021/07/04 10:36:01;;;;;;;6.60;6.10;;;23.30;61.60;;;;;;5051032;28;20420;-80
2021/07/04 10:38:43;;;;;;;7.03;6.43;;;23.20;64.80;;;;;;5049529;28;20450;-80
2021/07/04 10:41:14;;;;;;;6.50;5.90;;;23.00;68.80;;;;;;5048480;28;20451;-81
2021/07/04 10:43:55;;;;;;;7.67;6.00;;;22.80;72.10;;;;;;5045054;28;20512;-79
2021/07/04 10:46:55;;;;;;;7.07;6.37;;;22.20;77.00;;;;;;5044036;28;20477;-79
2021/07/04 10:49:23;;;;;;;7.30;6.70;;;22.00;78.60;;;;;;5043539;28;20989;-80
2021/07/04 10:51:56;;;;;;;6.63;6.03;;;22.00;82.60;;;;;;5052296;28;20479;-80
2021/07/04 10:54:52;;;;;;;5.43;5.03;;;21.80;84.60;;;;;;5054091;28;20435;-80
2021/07/04 10:57:25;;;;;;;5.03;4.53;;;21.70;84.30;;;;;;5049830;28;20430;-81
2021/07/04 11:00:15;;;;;;;6.30;5.70;;;21.30;86.60;;;;;;5049625;28;20418;-81
2021/07/04 11:02:45;;;;;;;6.00;5.40;;;20.80;90.20;;;;;;5041778;28;20443;-81
2021/07/04 11:05:14;;;;;;;5.40;4.87;;;20.50;90.70;;;;;;5044280;28;20425;-80
2021/07/04 11:08:09;;;;;;;5.93;5.43;;;20.00;91.70;;;;;;5053554;28;20468;-80
2021/07/04 11:10:38;;;;;;;5.83;4.80;;;20.10;93.90;;;;;;5053334;28;20442;-80
2021/07/04 11:13:51;;;;;;;7.30;4.60;;;20.10;95.20;;;;;;5046230;28;20513;-80
2021/07/04 11:16:25;;;;;;;5.07;4.57;;;20.10;94.70;;;;;;5049881;28;20433;-80
2021/07/04 11:19:24;;;;;;;4.83;4.43;;;20.10;95.10;;;;;;5052184;28;20464;-80
2021/07/04 11:24:35;;;;;;;5.80;4.20;;;19.90;95.60;;;;;;5045503;28;20420;-84
2021/07/04 11:27:24;;;;;;;7.33;5.03;;;19.20;99.20;;;;;;5047993;28;20822;-80
2021/07/04 11:30:24;;;;;;;6.13;4.43;;;19.10;99.90;;;;;;5044753;28;20486;-81
2021/07/04 11:33:24;;;;;;;6.20;4.60;;;19.20;99.90;;;;;;5042097;28;20448;-81
2021/07/04 11:35:52;;;;;;;6.63;4.70;;;19.10;99.90;;;;;;5043303;28;20450;-81
2021/07/04 11:38:21;;;;;;;7.07;5.40;;;19.10;99.90;;;;;;5040507;28;20434;-80
2021/07/04 11:40:49;;;;;;;8.30;4.87;;;19.00;99.90;;;;;;5041198;28;20430;-79
2021/07/04 11:43:18;;;;;;;5.90;5.27;;;19.00;99.90;;;;;;5039174;28;20458;-79
2021/07/04 11:45:56;;;;;;;6.13;5.50;;;18.90;99.90;;;;;;5051131;28;20433;-81
2021/07/04 11:48:45;;;;;;;5.07;4.67;;;18.90;99.90;;;;;;5051141;28;20452;-80
2021/07/04 11:51:12;;;;;;;6.77;5.20;;;19.00;99.90;;;;;;5053604;28;20506;-79
2021/07/04 11:53:47;;;;;;;7.50;5.00;;;19.00;99.90;;;;;;5055254;28;20454;-81
2021/07/04 11:56:15;;;;;;;6.63;5.13;;;19.10;99.90;;;;;;5045706;28;20951;-80
2021/07/04 11:58:42;;;;;;;5.60;5.10;;;19.20;99.90;;;;;;5042062;28;20446;-80
2021/07/04 12:01:17;;;;;;;5.60;5.10;;;19.40;99.90;;;;;;5042975;28;20510;-79
2021/07/04 12:03:49;;;;;;;7.20;4.97;;;19.50;99.90;;;;;;5039980;28;20450;-80
2021/07/04 12:06:16;;;;;;;5.33;4.50;;;19.50;99.90;;;;;;5039391;28;20557;-79
2021/07/04 12:08:54;;;;;;;5.23;4.60;;;19.50;99.90;;;;;;5038894;28;20540;-79
2021/07/04 12:11:38;;;;;;;5.37;4.47;;;19.70;99.90;;;;;;5039885;28;20469;-81
2021/07/04 12:14:24;;;;;;;4.93;4.23;;;19.90;99.90;;;;;;5043103;28;20393;-80
2021/07/04 12:16:52;;;;;;;4.77;4.37;;;20.10;99.90;;;;;;5044779;28;20401;-80
2021/07/04 12:19:31;;;;;;;4.53;4.10;;;20.50;99.90;;;;;;5041021;28;20483;-79
2021/07/04 12:22:00;;;;;;;4.13;3.73;;;20.40;96.30;;;;;;5040736;28;20520;-79
2021/07/04 12:24:39;;;;;;;5.07;3.60;;;20.80;95.10;;;;;;5041846;28;20946;-80
2021/07/04 12:27:07;;;;;;;3.37;2.90;;;21.20;93.10;;;;;;5044522;28;20452;-79
2021/07/04 12:29:58;;;;;;;3.17;2.90;;;21.60;90.00;;;;;;5047820;28;20467;-80
2021/07/04 12:32:25;;;;;;;3.50;2.80;;;22.20;87.10;;;;;;5049893;28;20444;-79
2021/07/04 12:34:54;;;;;;;3.40;3.17;;;22.70;79.20;;;;;;5053191;28;20464;-79
2021/07/04 12:37:22;;;;;;;3.27;3.00;;;22.80;71.70;;;;;;5048948;28;20424;-79
2021/07/04 12:39:49;;;;;;;3.13;2.83;;;23.00;75.50;;;;;;5050984;28;20420;-80
2021/07/04 12:42:24;;;;;;;2.60;2.40;;;23.50;74.50;;;;;;5051927;28;20482;-80
2021/07/04 12:45:06;;;;;;;2.70;2.50;;;23.60;67.10;;;;;;5052934;28;20428;-80
2021/07/04 12:47:33;;;;;;;4.23;2.80;;;23.80;70.40;;;;;;5053818;28;20447;-79
2021/07/04 12:50:05;;;;;;;3.17;2.23;;;24.10;62.30;;;;;;5053455;28;20487;-80
2021/07/04 12:52:32;;;;;;;2.20;2.10;;;24.20;60.80;;;;;;5052301;28;20470;-81
2021/07/04 12:55:00;;;;;;;2.60;2.40;;;24.30;61.10;;;;;;5053560;28;20462;-80
2021/07/04 12:57:32;;;;;;;2.60;2.40;;;24.20;62.40;;;;;;5054481;28;20450;-80
2021/07/04 13:00:14;;;;;;;3.60;3.00;;;24.10;60.90;;;;;;5053017;28;20493;-82
2021/07/04 13:02:46;;;;;;;5.30;2.50;;;24.20;62.40;;;;;;5050589;28;20445;-80
2021/07/04 13:05:15;;;;;;;3.10;2.77;;;24.30;66.30;;;;;;5052158;28;20480;-81